createdAt,value
2023-06-17T00:01:40.934Z,77.90
2023-06-17T00:06:47.780Z,78.19
2023-06-17T00:11:54.742Z,78.31
2023-06-17T00:17:01.980Z,78.87
2023-06-17T00:22:10.329Z,78.91
2023-06-17T00:27:17.204Z,79.13
2023-06-17T00:32:24.393Z,79.30
2023-06-17T00:37:32.063Z,79.13
2023-06-17T00:42:39.205Z,78.89
2023-06-17T00:47:46.395Z,78.80
2023-06-17T00:52:55.398Z,78.88
2023-06-17T00:58:02.593Z,79.64
2023-06-17T01:03:10.761Z,80.18
2023-06-17T01:08:31.062Z,80.49
2023-06-17T01:13:38.977Z,80.53
2023-06-17T01:18:50.137Z,80.52
2023-06-17T01:24:00.478Z,80.69
2023-06-17T01:29:08.937Z,80.50
2023-06-17T01:34:16.767Z,80.84
2023-06-17T01:39:28.477Z,80.84
2023-06-17T01:44:37.322Z,80.48
2023-06-17T01:49:44.209Z,80.53
2023-06-17T01:54:51.676Z,80.21
2023-06-17T01:59:59.353Z,80.16
2023-06-17T02:05:07.461Z,80.20
2023-06-17T02:10:14.702Z,80.52
2023-06-17T02:15:21.747Z,80.56
2023-06-17T02:20:29.400Z,80.71
2023-06-17T02:25:38.033Z,81.07
2023-06-17T02:30:45.000Z,81.32
2023-06-17T02:35:52.346Z,81.23
2023-06-17T02:40:59.274Z,81.50
2023-06-17T02:46:06.287Z,81.18
2023-06-17T02:51:13.682Z,80.96
2023-06-17T02:56:21.116Z,81.01
2023-06-17T03:01:29.910Z,80.91
2023-06-17T03:06:37.239Z,81.19
2023-06-17T03:11:44.529Z,81.31
2023-06-17T03:16:52.947Z,81.25
2023-06-17T03:22:01.917Z,81.26
2023-06-17T03:27:13.452Z,81.31
2023-06-17T03:32:21.262Z,81.66
2023-06-17T03:37:29.385Z,81.62
2023-06-17T03:42:36.666Z,81.76
2023-06-17T03:47:43.941Z,81.84
2023-06-17T03:52:51.095Z,81.94
2023-06-17T03:57:59.234Z,82.01
2023-06-17T04:03:08.007Z,81.92
2023-06-17T04:08:15.284Z,81.64
2023-06-17T04:13:22.407Z,81.60
2023-06-17T04:18:33.010Z,81.63
2023-06-17T04:23:40.942Z,81.66
2023-06-17T04:28:48.495Z,81.83
2023-06-17T04:33:56.333Z,81.81
2023-06-17T04:39:04.501Z,81.95
2023-06-17T04:44:12.323Z,82.02
2023-06-17T04:49:19.715Z,81.74
2023-06-17T04:54:26.742Z,81.65
2023-06-17T04:59:33.949Z,81.52
2023-06-17T05:04:42.475Z,81.51
2023-06-17T05:09:49.519Z,80.99
2023-06-17T05:14:56.868Z,80.66
2023-06-17T05:20:04.203Z,80.64
2023-06-17T05:25:12.422Z,79.77
2023-06-17T05:30:20.351Z,79.37
2023-06-17T05:35:29.842Z,79.12
2023-06-17T05:40:38.178Z,78.97
2023-06-17T05:45:45.687Z,79.01
2023-06-17T05:50:53.244Z,78.98
2023-06-17T05:56:00.273Z,78.24
2023-06-17T06:01:07.353Z,76.40
2023-06-17T06:06:16.402Z,75.62
2023-06-17T06:11:23.701Z,74.82
2023-06-17T06:16:30.697Z,74.18
2023-06-17T06:21:37.689Z,73.92
2023-06-17T06:26:44.829Z,74.02
2023-06-17T06:31:53.466Z,74.05
2023-06-17T06:37:00.624Z,73.75
2023-06-17T06:42:08.959Z,73.72
2023-06-17T06:47:30.095Z,73.10
2023-06-17T06:52:45.637Z,72.45
2023-06-17T06:58:04.192Z,72.45
2023-06-17T07:03:22.238Z,71.61
2023-06-17T07:08:29.368Z,71.63
2023-06-17T07:13:37.021Z,71.58
2023-06-17T07:18:44.122Z,71.04
2023-06-17T07:23:53.155Z,70.73
2023-06-17T07:29:02.091Z,69.82
2023-06-17T07:34:09.120Z,69.49
2023-06-17T07:39:16.255Z,69.69
2023-06-17T07:44:23.271Z,69.80
2023-06-17T07:49:31.028Z,69.80
2023-06-17T07:54:38.098Z,69.37
2023-06-17T07:59:46.138Z,68.99
2023-06-17T08:04:53.104Z,68.70
2023-06-17T08:10:00.131Z,68.33
2023-06-17T08:15:09.257Z,68.20
2023-06-17T08:20:17.947Z,68.01
2023-06-17T08:25:25.343Z,67.10
2023-06-17T08:30:32.347Z,67.00
2023-06-17T08:35:39.317Z,66.33
2023-06-17T08:40:48.117Z,66.11
2023-06-17T08:45:57.457Z,64.90
2023-06-17T08:51:04.689Z,64.70
2023-06-17T08:56:12.357Z,64.20
2023-06-17T09:01:21.976Z,63.80
2023-06-17T09:06:30.089Z,63.13
2023-06-17T09:11:37.068Z,62.43
2023-06-17T09:16:44.736Z,62.01
2023-06-17T09:21:51.791Z,61.70
2023-06-17T09:26:58.758Z,60.90
2023-06-17T09:32:06.330Z,60.05
2023-06-17T09:37:14.973Z,59.89
2023-06-17T09:42:23.556Z,59.97
2023-06-17T09:47:37.690Z,58.68
2023-06-17T09:52:45.577Z,59.38
2023-06-17T09:57:54.957Z,58.27
2023-06-17T10:03:02.693Z,57.73
2023-06-17T10:08:10.017Z,56.90
2023-06-17T10:13:21.217Z,57.19
2023-06-17T10:18:29.461Z,57.82
2023-06-17T10:23:38.818Z,57.01
2023-06-17T10:29:03.241Z,57.21
2023-06-17T10:34:15.890Z,56.78
2023-06-17T10:39:22.962Z,56.23
2023-06-17T10:44:44.487Z,56.15
2023-06-17T10:49:54.232Z,55.35
2023-06-17T10:55:01.320Z,54.66
2023-06-17T11:00:11.435Z,55.52
2023-06-17T11:05:17.473Z,55.16
2023-06-17T11:10:29.705Z,54.91
2023-06-17T11:15:36.693Z,53.98
2023-06-17T11:20:44.094Z,53.97
2023-06-17T11:25:57.583Z,53.43
2023-06-17T11:31:04.919Z,51.87
2023-06-17T11:36:15.312Z,52.08
2023-06-17T11:41:22.672Z,50.73
2023-06-17T11:46:29.676Z,49.93
2023-06-17T11:51:37.151Z,50.04
2023-06-17T11:56:45.478Z,50.19
2023-06-17T12:01:53.819Z,48.97
2023-06-17T12:07:00.816Z,47.43
2023-06-17T12:12:11.891Z,47.58
2023-06-17T12:17:23.315Z,47.90
2023-06-17T12:22:30.303Z,48.20
2023-06-17T12:27:37.256Z,47.15
2023-06-17T12:32:45.171Z,45.65
2023-06-17T12:37:55.763Z,44.42
2023-06-17T12:43:03.034Z,43.62
2023-06-17T12:48:10.792Z,44.65
2023-06-17T12:53:17.779Z,44.98
2023-06-17T12:58:26.034Z,44.73
2023-06-17T13:03:32.876Z,44.47
2023-06-17T13:08:40.455Z,43.21
2023-06-17T13:13:47.532Z,41.23
2023-06-17T13:18:54.678Z,40.24
2023-06-17T13:24:01.836Z,40.21
2023-06-17T13:29:09.549Z,39.43
2023-06-17T13:34:17.060Z,39.50
2023-06-17T13:39:24.132Z,37.37
2023-06-17T13:44:31.033Z,36.80
2023-06-17T13:49:38.149Z,36.33
2023-06-17T13:54:45.968Z,36.80
2023-06-17T13:59:52.903Z,37.09
2023-06-17T14:05:00.267Z,36.62
2023-06-17T14:10:08.239Z,36.18
2023-06-17T14:15:15.950Z,35.89
2023-06-17T14:20:23.674Z,35.79
2023-06-17T14:25:30.979Z,35.91
2023-06-17T14:30:38.040Z,36.55
2023-06-17T14:35:45.105Z,36.57
2023-06-17T14:40:52.194Z,36.72
2023-06-17T14:45:59.990Z,37.11
2023-06-17T14:51:07.139Z,37.64
2023-06-17T14:56:26.903Z,37.64
2023-06-17T15:01:36.421Z,38.24
2023-06-17T15:06:43.857Z,38.78
2023-06-17T15:11:50.764Z,39.28
2023-06-17T15:16:58.187Z,39.89
2023-06-17T15:22:05.498Z,40.38
2023-06-17T15:27:13.595Z,40.95
2023-06-17T15:32:22.974Z,41.22
2023-06-17T15:37:32.432Z,41.43
2023-06-17T15:42:42.069Z,41.27
2023-06-17T15:47:50.732Z,40.47
2023-06-17T15:52:57.792Z,40.04
2023-06-17T15:58:04.865Z,40.84
2023-06-17T16:03:12.182Z,40.03
2023-06-17T16:08:30.946Z,39.67
2023-06-17T16:13:38.662Z,40.26
2023-06-17T16:18:45.545Z,40.99
2023-06-17T16:23:52.648Z,41.26
2023-06-17T16:28:59.615Z,41.50
2023-06-17T16:34:06.490Z,41.87
2023-06-17T16:39:13.536Z,42.40
2023-06-17T16:44:20.670Z,42.43
2023-06-17T16:49:27.680Z,43.39
2023-06-17T16:54:34.630Z,44.19
2023-06-17T16:59:41.647Z,44.96
2023-06-17T17:04:48.521Z,46.52
2023-06-17T17:09:55.441Z,47.42
2023-06-17T17:15:02.358Z,47.23
2023-06-17T17:20:11.918Z,47.85
2023-06-17T17:25:19.227Z,48.42
2023-06-17T17:30:26.757Z,49.11
2023-06-17T17:35:33.851Z,49.82
2023-06-17T17:40:40.878Z,49.16
2023-06-17T17:45:47.962Z,48.52
2023-06-17T17:50:54.852Z,48.32
2023-06-17T17:56:01.976Z,48.50
2023-06-17T18:01:08.854Z,48.92
2023-06-17T18:06:17.931Z,49.54
2023-06-17T18:11:25.500Z,50.73
2023-06-17T18:16:32.457Z,51.86
2023-06-17T18:21:39.774Z,52.59
2023-06-17T18:26:46.755Z,53.18
2023-06-17T18:31:55.116Z,54.25
2023-06-17T18:37:02.040Z,54.06
2023-06-17T18:42:10.204Z,54.51
2023-06-17T18:47:17.108Z,55.12
2023-06-17T18:52:24.041Z,55.78
2023-06-17T18:57:31.263Z,56.48
2023-06-17T19:02:38.362Z,57.53
2023-06-17T19:07:46.562Z,58.06
2023-06-17T19:12:53.580Z,58.15
2023-06-17T19:18:00.918Z,59.28
2023-06-17T19:23:08.043Z,59.42
2023-06-17T19:28:14.946Z,59.58
2023-06-17T19:33:22.848Z,60.27
2023-06-17T19:38:29.741Z,60.71
2023-06-17T19:43:37.440Z,60.70
2023-06-17T19:48:44.334Z,60.65
2023-06-17T19:53:51.842Z,60.85
2023-06-17T19:58:59.008Z,61.45
2023-06-17T20:04:06.330Z,61.75
2023-06-17T20:09:13.347Z,62.11
2023-06-17T20:14:20.304Z,62.53
2023-06-17T20:19:27.179Z,62.67
2023-06-17T20:24:34.309Z,63.05
2023-06-17T20:29:41.421Z,63.53
2023-06-17T20:34:48.528Z,63.53
2023-06-17T20:39:55.429Z,64.07
2023-06-17T20:45:02.437Z,64.36
2023-06-17T20:50:11.918Z,64.73
2023-06-17T20:55:18.814Z,65.43
2023-06-17T21:00:25.976Z,66.01
2023-06-17T21:05:32.975Z,66.44
2023-06-17T21:10:39.812Z,66.98
2023-06-17T21:15:46.741Z,67.71
2023-06-17T21:20:53.775Z,68.07
2023-06-17T21:26:01.189Z,69.01
2023-06-17T21:31:08.641Z,68.77
2023-06-17T21:36:15.855Z,68.71
2023-06-17T21:41:22.826Z,68.99
2023-06-17T21:46:32.896Z,69.45
2023-06-17T21:51:40.219Z,69.91
2023-06-17T21:56:47.192Z,70.23
2023-06-17T22:01:54.198Z,70.70
2023-06-17T22:07:01.553Z,70.95
2023-06-17T22:12:10.037Z,71.08
2023-06-17T22:17:17.099Z,71.79
2023-06-17T22:22:24.035Z,71.35
2023-06-17T22:27:31.007Z,71.62
2023-06-17T22:32:38.435Z,71.73
2023-06-17T22:37:45.411Z,71.46
2023-06-17T22:42:52.236Z,72.07
2023-06-17T22:47:59.288Z,72.68
2023-06-17T22:53:06.372Z,73.09
2023-06-17T22:58:13.302Z,73.40
2023-06-17T23:03:20.208Z,73.31
2023-06-17T23:08:27.316Z,73.78
2023-06-17T23:13:34.213Z,74.49
2023-06-17T23:18:41.134Z,74.59
2023-06-17T23:23:49.613Z,74.63
2023-06-17T23:28:57.747Z,74.33
2023-06-17T23:34:04.730Z,74.28
2023-06-17T23:39:11.815Z,74.37
2023-06-17T23:44:18.815Z,73.94
2023-06-17T23:49:25.750Z,74.26
2023-06-17T23:54:32.721Z,74.94
2023-06-17T23:59:39.850Z,74.32
